Time;durP1;ratioP1;P1;durP2;ratioP2;P2;SDS_P1;SDS_P2;PMS_P1;PMS_P2;Temp;Humidity;BMP_temperature;BMP_pressure;BME280_temperature;BME280_humidity;BME280_pressure;Samples;Min_cycle;Max_cycle;Signal;HPM_P1;HPM_P2
2023/08/13 00:01:20;;;;;;;1.43;1.40;;;28.60;65.10;;;;;;4856163;29;20476;-82
2023/08/13 00:03:49;;;;;;;2.00;1.90;;;28.60;65.10;;;;;;4853708;29;20854;-82
2023/08/13 00:06:17;;;;;;;1.60;1.50;;;28.60;65.10;;;;;;4847414;29;20491;-83
2023/08/13 00:08:45;;;;;;;1.80;1.70;;;28.50;65.20;;;;;;4851236;29;20861;-82
2023/08/13 00:11:14;;;;;;;1.70;1.60;;;28.50;65.20;;;;;;4852326;29;20502;-84
2023/08/13 00:13:42;;;;;;;1.70;1.60;;;28.50;65.20;;;;;;4855198;29;21071;-83
2023/08/13 00:16:12;;;;;;;2.30;2.10;;;28.50;65.30;;;;;;4849163;29;20488;-83
2023/08/13 00:18:40;;;;;;;2.03;1.93;;;28.50;65.20;;;;;;4852349;29;21030;-84
2023/08/13 00:21:08;;;;;;;1.60;1.50;;;28.50;65.20;;;;;;4854239;29;20466;-83
2023/08/13 00:23:37;;;;;;;1.80;1.70;;;28.50;65.20;;;;;;4848100;29;20541;-83
2023/08/13 00:26:05;;;;;;;1.77;1.67;;;28.50;65.20;;;;;;4845862;29;20460;-83
2023/08/13 00:28:33;;;;;;;1.93;1.83;;;28.50;65.30;;;;;;4848873;29;20496;-83
2023/08/13 00:31:01;;;;;;;1.70;1.60;;;28.50;65.30;;;;;;4854543;29;20475;-83
2023/08/13 00:33:31;;;;;;;1.90;1.80;;;28.50;65.30;;;;;;4852634;29;20516;-83
2023/08/13 00:35:59;;;;;;;2.10;2.00;;;28.50;65.30;;;;;;4855256;29;20476;-82
2023/08/13 00:38:27;;;;;;;1.80;1.70;;;28.50;65.30;;;;;;4846333;29;21034;-85
2023/08/13 00:40:56;;;;;;;1.57;1.47;;;28.50;65.30;;;;;;4848793;29;20496;-83
2023/08/13 00:43:24;;;;;;;1.60;1.50;;;28.50;65.40;;;;;;4852458;29;20992;-83
2023/08/13 00:45:52;;;;;;;1.67;1.57;;;28.50;65.30;;;;;;4854386;29;20474;-82
2023/08/13 00:48:21;;;;;;;1.60;1.50;;;28.50;65.40;;;;;;4847806;29;20567;-83
2023/08/13 00:50:51;;;;;;;1.60;1.50;;;28.50;65.40;;;;;;4851906;29;20520;-83
2023/08/13 00:53:21;;;;;;;2.03;1.90;;;28.50;65.40;;;;;;4853826;29;20605;-82
2023/08/13 00:55:50;;;;;;;1.70;1.60;;;28.50;65.40;;;;;;4854450;29;21022;-83
2023/08/13 00:58:18;;;;;;;1.60;1.50;;;28.40;65.40;;;;;;4850030;29;20482;-83
2023/08/13 01:00:47;;;;;;;1.40;1.37;;;28.40;65.40;;;;;;4852645;29;20542;-83
2023/08/13 01:03:15;;;;;;;2.10;2.00;;;28.40;65.40;;;;;;4850422;29;20505;-83
2023/08/13 01:05:51;;;;;;;1.90;1.80;;;28.40;65.40;;;;;;4853069;29;20562;-83
2023/08/13 01:08:29;;;;;;;1.63;1.53;;;28.40;65.50;;;;;;4861664;29;20478;-84
2023/08/13 01:11:03;;;;;;;2.10;2.00;;;28.40;65.50;;;;;;4854107;29;20468;-84
2023/08/13 01:13:34;;;;;;;2.27;2.17;;;28.40;65.50;;;;;;4855538;29;20474;-83
2023/08/13 01:16:05;;;;;;;2.13;2.03;;;28.40;65.50;;;;;;4855005;29;20468;-83
2023/08/13 01:18:34;;;;;;;1.67;1.57;;;28.40;65.50;;;;;;4843048;29;20820;-83
2023/08/13 01:21:02;;;;;;;1.80;1.70;;;28.40;65.60;;;;;;4853375;29;20846;-84
2023/08/13 01:23:32;;;;;;;1.73;1.63;;;28.40;65.60;;;;;;4855786;29;21015;-83
2023/08/13 01:26:18;;;;;;;2.03;1.93;;;28.30;65.70;;;;;;4852938;29;20515;-84
2023/08/13 01:28:52;;;;;;;1.63;1.53;;;28.30;65.70;;;;;;4843397;29;20474;-83
2023/08/13 01:31:25;;;;;;;1.70;1.60;;;28.30;65.70;;;;;;4860332;29;20832;-84
2023/08/13 01:33:56;;;;;;;1.40;1.30;;;28.30;65.70;;;;;;4848301;29;20470;-84
2023/08/13 01:36:25;;;;;;;1.80;1.73;;;28.30;65.70;;;;;;4852499;29;21246;-83
2023/08/13 01:38:58;;;;;;;2.17;2.03;;;28.30;65.70;;;;;;4852963;29;20544;-83
2023/08/13 01:41:35;;;;;;;1.60;1.50;;;28.30;65.70;;;;;;4848287;29;20494;-83
2023/08/13 01:44:03;;;;;;;1.93;1.83;;;28.30;65.70;;;;;;4846223;29;20814;-83
2023/08/13 01:46:32;;;;;;;1.90;1.80;;;28.30;65.70;;;;;;4850163;29;20496;-83
2023/08/13 01:49:00;;;;;;;2.57;1.70;;;28.30;65.70;;;;;;4849028;29;20477;-83
2023/08/13 01:51:28;;;;;;;2.20;2.10;;;28.30;65.70;;;;;;4855126;29;20470;-85
2023/08/13 01:53:58;;;;;;;1.93;1.83;;;28.30;65.70;;;;;;4847220;29;21013;-83
2023/08/13 01:56:26;;;;;;;1.70;1.60;;;28.30;65.70;;;;;;4846881;29;20593;-83
2023/08/13 01:58:54;;;;;;;2.03;1.93;;;28.30;65.70;;;;;;4867206;29;20485;-82
2023/08/13 02:01:23;;;;;;;1.60;1.50;;;28.30;65.70;;;;;;4849589;29;20496;-83
2023/08/13 02:03:51;;;;;;;1.87;1.77;;;28.30;65.70;;;;;;4853697;29;20977;-83
2023/08/13 02:06:20;;;;;;;1.93;1.83;;;28.30;65.70;;;;;;4852517;29;20513;-83
2023/08/13 02:08:49;;;;;;;1.97;1.87;;;28.30;65.70;;;;;;4852362;29;20477;-83
2023/08/13 02:11:18;;;;;;;1.50;1.50;;;28.30;65.70;;;;;;4851929;29;20505;-83
2023/08/13 02:13:47;;;;;;;2.33;2.20;;;28.30;65.90;;;;;;4856177;29;20954;-83
2023/08/13 02:16:15;;;;;;;2.20;2.00;;;28.20;65.90;;;;;;4852283;29;20555;-83
2023/08/13 02:18:44;;;;;;;2.27;2.17;;;28.20;65.90;;;;;;4850852;29;20483;-82
2023/08/13 02:21:12;;;;;;;4.00;2.07;;;28.20;65.90;;;;;;4860191;29;20510;-83
2023/08/13 02:23:40;;;;;;;2.00;1.90;;;28.20;65.90;;;;;;4869269;29;20486;-83
2023/08/13 02:26:08;;;;;;;2.47;2.37;;;28.20;65.90;;;;;;4848612;29;20538;-83
2023/08/13 02:28:38;;;;;;;1.70;1.60;;;28.20;65.90;;;;;;4851485;29;20542;-83
2023/08/13 02:31:06;;;;;;;1.77;1.67;;;28.20;65.90;;;;;;4853593;29;20466;-84
2023/08/13 02:33:34;;;;;;;1.80;1.70;;;28.20;65.90;;;;;;4855089;29;20463;-83
2023/08/13 02:36:03;;;;;;;1.83;1.73;;;28.20;65.90;;;;;;4853147;29;20478;-83
2023/08/13 02:38:31;;;;;;;2.20;2.10;;;28.20;65.90;;;;;;4852917;29;20985;-84
2023/08/13 02:40:59;;;;;;;1.90;1.80;;;28.20;65.90;;;;;;4853221;29;21720;-83
2023/08/13 02:43:28;;;;;;;1.90;1.80;;;28.20;65.90;;;;;;4853453;29;20523;-82
2023/08/13 02:45:58;;;;;;;1.70;1.60;;;28.20;65.90;;;;;;4850937;29;20533;-83
2023/08/13 02:48:26;;;;;;;2.03;1.93;;;28.20;65.90;;;;;;4851725;29;20471;-83
2023/08/13 02:50:54;;;;;;;2.00;1.90;;;28.20;65.90;;;;;;4855248;29;20476;-83
2023/08/13 02:53:23;;;;;;;2.13;1.70;;;28.20;65.90;;;;;;4857147;29;20957;-82
2023/08/13 02:55:51;;;;;;;1.73;1.63;;;28.20;65.90;;;;;;4852227;29;20469;-83
2023/08/13 02:58:19;;;;;;;2.10;2.00;;;28.20;65.90;;;;;;4851978;29;20473;-83
2023/08/13 03:00:47;;;;;;;2.10;2.00;;;28.10;65.90;;;;;;4850243;29;20883;-83
2023/08/13 03:03:17;;;;;;;2.03;1.93;;;28.20;66.00;;;;;;4843161;29;20477;-83
2023/08/13 03:05:45;;;;;;;2.20;2.10;;;28.10;66.00;;;;;;4853050;29;20874;-83
2023/08/13 03:08:13;;;;;;;2.40;2.20;;;28.10;66.00;;;;;;4855153;29;20521;-84
2023/08/13 03:10:41;;;;;;;2.50;2.30;;;28.10;66.00;;;;;;4855623;29;20458;-82
2023/08/13 03:13:09;;;;;;;2.10;2.00;;;28.10;66.00;;;;;;4853910;29;20472;-83
2023/08/13 03:15:38;;;;;;;2.00;1.90;;;28.10;66.00;;;;;;4854991;29;20515;-84
2023/08/13 03:18:06;;;;;;;1.90;1.80;;;28.10;66.10;;;;;;4857487;29;20484;-83
2023/08/13 03:20:39;;;;;;;2.30;2.20;;;28.10;66.10;;;;;;4855903;29;20492;-83
2023/08/13 03:23:07;;;;;;;2.07;1.97;;;28.10;66.20;;;;;;4853164;29;20489;-83
2023/08/13 03:25:36;;;;;;;2.30;2.10;;;28.10;66.20;;;;;;4857415;29;20521;-83
2023/08/13 03:28:05;;;;;;;2.13;2.03;;;28.10;66.00;;;;;;4855061;29;20505;-83
2023/08/13 03:30:33;;;;;;;2.30;2.20;;;28.10;66.00;;;;;;4852468;29;20468;-83
2023/08/13 03:33:02;;;;;;;1.93;1.83;;;28.10;66.00;;;;;;4854024;29;20480;-83
2023/08/13 03:35:30;;;;;;;2.33;2.20;;;28.10;66.10;;;;;;4848072;29;20482;-83
2023/08/13 03:38:00;;;;;;;2.20;2.10;;;28.10;66.10;;;;;;4856604;29;20481;-83
2023/08/13 03:40:28;;;;;;;2.00;1.90;;;28.10;66.20;;;;;;4849281;29;20523;-83
2023/08/13 03:42:56;;;;;;;2.20;2.10;;;28.10;66.10;;;;;;4853788;29;20530;-83
2023/08/13 03:45:25;;;;;;;2.37;2.27;;;28.10;66.10;;;;;;4854373;29;20465;-83
2023/08/13 03:47:54;;;;;;;2.10;2.00;;;28.10;66.20;;;;;;4854169;29;20477;-83
2023/08/13 03:50:23;;;;;;;2.33;2.23;;;28.10;66.20;;;;;;4854419;29;20505;-83
2023/08/13 03:52:51;;;;;;;2.30;2.10;;;28.10;66.20;;;;;;4857198;29;21005;-83
2023/08/13 03:55:21;;;;;;;2.10;2.00;;;28.10;66.20;;;;;;4847743;29;20535;-83
2023/08/13 03:57:52;;;;;;;2.23;2.13;;;28.00;66.20;;;;;;4851419;29;20478;-84
2023/08/13 04:00:21;;;;;;;2.10;2.00;;;28.10;66.20;;;;;;4859108;29;20481;-83
2023/08/13 04:02:50;;;;;;;2.00;1.90;;;28.10;66.20;;;;;;4850243;29;20496;-83
2023/08/13 04:05:19;;;;;;;1.90;1.80;;;28.10;66.20;;;;;;4851080;29;20484;-83
2023/08/13 04:07:47;;;;;;;1.93;1.83;;;28.00;66.20;;;;;;4854395;29;20472;-83
2023/08/13 04:10:16;;;;;;;2.30;2.20;;;28.00;66.20;;;;;;4853761;29;20477;-82
2023/08/13 04:12:46;;;;;;;2.20;2.10;;;28.00;66.30;;;;;;4852996;29;20468;-83
2023/08/13 04:15:15;;;;;;;2.30;2.20;;;28.00;66.20;;;;;;4855036;29;20472;-83
2023/08/13 04:17:45;;;;;;;1.93;1.83;;;28.00;66.20;;;;;;4855777;29;20483;-86
2023/08/13 04:20:13;;;;;;;2.20;2.10;;;28.00;66.20;;;;;;4866095;29;20887;-83
2023/08/13 04:22:42;;;;;;;2.70;2.50;;;28.00;66.20;;;;;;4855621;29;20515;-83
2023/08/13 04:25:10;;;;;;;2.50;2.40;;;28.00;66.20;;;;;;4848052;29;20559;-84
2023/08/13 04:27:38;;;;;;;2.63;2.10;;;28.00;66.20;;;;;;4866215;29;20584;-83
2023/08/13 04:30:10;;;;;;;1.97;1.87;;;28.00;66.20;;;;;;4855355;29;20479;-83
2023/08/13 04:32:39;;;;;;;2.17;2.07;;;28.00;66.30;;;;;;4851072;29;20467;-82
2023/08/13 04:35:09;;;;;;;2.07;1.97;;;28.00;66.20;;;;;;4849094;29;20501;-83
2023/08/13 04:37:37;;;;;;;2.27;2.07;;;28.00;66.20;;;;;;4858481;29;21157;-83
2023/08/13 04:40:07;;;;;;;2.13;2.03;;;28.00;66.30;;;;;;4847722;29;20509;-83
2023/08/13 04:42:36;;;;;;;2.30;2.20;;;28.00;66.30;;;;;;4853446;29;20549;-83
2023/08/13 04:45:05;;;;;;;2.07;1.87;;;28.00;66.30;;;;;;4868150;29;20525;-83
2023/08/13 04:47:35;;;;;;;2.03;1.93;;;28.00;66.30;;;;;;4870696;29;20552;-83
2023/08/13 04:50:05;;;;;;;2.27;2.17;;;28.00;66.30;;;;;;4854035;29;20465;-83
2023/08/13 04:52:33;;;;;;;2.27;2.17;;;28.00;66.30;;;;;;4854641;29;20472;-83
2023/08/13 04:55:01;;;;;;;1.97;1.87;;;28.00;66.30;;;;;;4854337;29;20517;-83
2023/08/13 04:57:30;;;;;;;2.07;1.97;;;28.00;66.30;;;;;;4851995;29;20559;-85
2023/08/13 04:59:59;;;;;;;2.70;2.50;;;28.00;66.30;;;;;;4854399;29;20482;-84
2023/08/13 05:02:35;;;;;;;2.27;2.17;;;28.00;66.30;;;;;;4851911;29;20580;-83
2023/08/13 05:05:05;;;;;;;1.90;1.80;;;28.00;66.30;;;;;;4864604;29;20483;-83
2023/08/13 05:07:33;;;;;;;3.03;2.83;;;28.00;66.30;;;;;;4853236;29;20476;-85
2023/08/13 05:10:04;;;;;;;2.10;2.00;;;28.00;66.30;;;;;;4862027;29;20497;-83
2023/08/13 05:12:33;;;;;;;2.23;2.13;;;28.00;66.30;;;;;;4849883;29;20972;-83
2023/08/13 05:15:01;;;;;;;2.47;2.37;;;28.00;66.30;;;;;;4842860;29;20474;-83
2023/08/13 05:17:31;;;;;;;2.53;2.33;;;28.00;66.30;;;;;;4855992;29;20477;-84
2023/08/13 05:20:01;;;;;;;2.70;2.60;;;28.00;66.30;;;;;;4846893;29;20475;-86
2023/08/13 05:22:29;;;;;;;2.50;2.40;;;28.00;66.30;;;;;;4848903;29;20480;-83
2023/08/13 05:24:57;;;;;;;2.30;2.20;;;28.00;66.30;;;;;;4849763;29;20563;-84
2023/08/13 05:27:26;;;;;;;2.40;2.30;;;28.00;66.20;;;;;;4849089;29;20554;-83
2023/08/13 05:29:54;;;;;;;2.00;1.90;;;28.00;66.20;;;;;;4852280;29;20479;-83
2023/08/13 05:32:24;;;;;;;2.40;2.30;;;28.00;66.30;;;;;;4845153;29;20473;-84
2023/08/13 05:34:53;;;;;;;2.50;2.40;;;28.00;66.20;;;;;;4847185;29;20551;-85
2023/08/13 05:37:24;;;;;;;3.07;2.40;;;28.00;66.20;;;;;;4864001;29;20494;-84
2023/08/13 05:39:52;;;;;;;2.37;2.17;;;28.00;66.20;;;;;;4856916;29;20480;-82
2023/08/13 05:42:21;;;;;;;2.20;2.10;;;28.00;66.20;;;;;;4855325;29;20486;-83
2023/08/13 05:44:51;;;;;;;2.60;2.50;;;28.00;66.20;;;;;;4856676;29;20479;-83
2023/08/13 05:47:19;;;;;;;2.67;2.47;;;28.00;66.20;;;;;;4850871;29;20483;-84
2023/08/13 05:49:47;;;;;;;2.50;2.40;;;28.00;66.20;;;;;;4856954;29;20833;-83
2023/08/13 05:52:17;;;;;;;3.63;2.37;;;28.00;66.20;;;;;;4856733;29;20817;-83
2023/08/13 05:54:47;;;;;;;2.27;2.17;;;28.00;66.20;;;;;;4857813;29;20465;-82
2023/08/13 05:57:16;;;;;;;2.27;2.17;;;28.00;66.20;;;;;;4858369;29;20463;-84
2023/08/13 05:59:44;;;;;;;2.07;1.97;;;28.00;66.20;;;;;;4858061;29;20516;-83
2023/08/13 06:02:12;;;;;;;2.47;2.37;;;28.00;66.20;;;;;;4858074;29;20510;-83
2023/08/13 06:04:40;;;;;;;2.27;2.13;;;28.00;66.20;;;;;;4851042;29;20475;-84
2023/08/13 06:07:09;;;;;;;2.50;2.40;;;28.00;66.20;;;;;;4858116;29;20465;-83
2023/08/13 06:09:37;;;;;;;1.73;1.63;;;28.00;66.20;;;;;;4860824;29;20567;-83
2023/08/13 06:12:08;;;;;;;2.50;2.40;;;28.00;66.20;;;;;;4862083;29;20456;-83
2023/08/13 06:14:37;;;;;;;2.30;2.20;;;28.00;66.20;;;;;;4860622;29;20475;-83
2023/08/13 06:17:05;;;;;;;2.50;2.30;;;28.00;66.20;;;;;;4861936;29;20460;-83
2023/08/13 06:19:43;;;;;;;2.40;2.30;;;28.00;66.20;;;;;;4875615;29;20824;-83
2023/08/13 06:22:11;;;;;;;1.70;1.60;;;28.00;66.20;;;;;;4861628;29;20849;-83
2023/08/13 06:24:40;;;;;;;2.20;2.10;;;28.00;66.20;;;;;;4860614;29;20473;-82
2023/08/13 06:27:09;;;;;;;2.27;2.17;;;28.00;66.10;;;;;;4860959;29;21025;-83
2023/08/13 06:29:38;;;;;;;2.70;2.50;;;28.00;66.10;;;;;;4853507;29;20454;-83
2023/08/13 06:32:06;;;;;;;2.03;1.93;;;28.00;66.10;;;;;;4861392;29;20502;-83
2023/08/13 06:34:34;;;;;;;2.13;2.03;;;28.10;66.10;;;;;;4859433;29;20465;-84
2023/08/13 06:37:03;;;;;;;2.70;2.60;;;28.10;66.10;;;;;;4854502;29;20498;-83
2023/08/13 06:39:31;;;;;;;2.40;2.30;;;28.10;66.10;;;;;;4860295;29;20485;-83
2023/08/13 06:41:59;;;;;;;2.30;2.20;;;28.10;66.10;;;;;;4861330;29;20452;-83
2023/08/13 06:44:31;;;;;;;2.20;2.10;;;28.10;66.00;;;;;;4851231;29;20929;-83
2023/08/13 06:46:59;;;;;;;2.23;2.10;;;28.10;66.00;;;;;;4860813;29;20458;-84
2023/08/13 06:49:27;;;;;;;2.23;2.10;;;28.10;66.00;;;;;;4860647;29;20530;-83
2023/08/13 06:51:56;;;;;;;2.60;2.40;;;28.10;66.00;;;;;;4860852;29;20513;-83
2023/08/13 06:54:24;;;;;;;2.17;2.07;;;28.10;66.00;;;;;;4859745;29;20466;-83
2023/08/13 06:56:52;;;;;;;2.23;2.13;;;28.10;66.00;;;;;;4860759;29;20452;-83
2023/08/13 06:59:21;;;;;;;2.73;2.53;;;28.10;66.00;;;;;;4859855;29;20832;-83
2023/08/13 07:01:51;;;;;;;2.37;2.17;;;28.10;66.10;;;;;;4849978;29;20469;-83
2023/08/13 07:04:19;;;;;;;2.50;2.40;;;28.10;66.10;;;;;;4859273;29;20493;-83
2023/08/13 07:06:47;;;;;;;2.13;2.03;;;28.10;66.10;;;;;;4848618;29;20451;-83
2023/08/13 07:09:16;;;;;;;2.53;2.43;;;28.10;66.10;;;;;;4851569;29;20946;-83
2023/08/13 07:11:44;;;;;;;2.33;2.23;;;28.10;66.10;;;;;;4856138;29;20454;-83
2023/08/13 07:14:12;;;;;;;2.47;2.30;;;28.10;66.10;;;;;;4855198;29;20495;-83
2023/08/13 07:16:40;;;;;;;1.90;1.80;;;28.10;66.10;;;;;;4848360;29;20467;-82
2023/08/13 07:19:09;;;;;;;2.30;2.20;;;28.10;66.10;;;;;;4850584;29;20490;-83
2023/08/13 07:21:38;;;;;;;2.13;2.03;;;28.10;66.10;;;;;;4856443;29;20477;-83
2023/08/13 07:24:06;;;;;;;2.40;2.30;;;28.10;66.10;;;;;;4856834;29;20943;-83
2023/08/13 07:26:35;;;;;;;1.87;1.77;;;28.10;66.10;;;;;;4852765;29;20486;-83
2023/08/13 07:29:06;;;;;;;2.63;2.43;;;28.10;66.10;;;;;;4856646;29;20468;-83
2023/08/13 07:31:35;;;;;;;2.17;2.07;;;28.10;66.00;;;;;;4860441;29;20464;-83
2023/08/13 07:34:03;;;;;;;2.33;2.23;;;28.10;66.00;;;;;;4855951;29;20467;-83
2023/08/13 07:36:33;;;;;;;2.27;2.07;;;28.10;66.00;;;;;;4842344;29;20562;-83
2023/08/13 07:39:02;;;;;;;2.47;2.33;;;28.10;66.00;;;;;;4857716;29;20455;-83
2023/08/13 07:41:30;;;;;;;1.90;1.80;;;28.10;65.90;;;;;;4858568;29;20462;-83
2023/08/13 07:43:58;;;;;;;2.10;1.90;;;28.10;65.90;;;;;;4852276;29;20541;-83
2023/08/13 07:46:26;;;;;;;2.43;2.23;;;28.10;65.90;;;;;;4859081;29;20458;-83
2023/08/13 07:48:54;;;;;;;2.23;2.03;;;28.10;65.90;;;;;;4853598;29;21006;-83
2023/08/13 07:51:23;;;;;;;2.00;1.87;;;28.10;65.90;;;;;;4851790;29;20470;-84
2023/08/13 07:53:53;;;;;;;2.47;2.37;;;28.10;65.90;;;;;;4855935;29;20570;-83
2023/08/13 07:56:22;;;;;;;2.07;1.97;;;28.20;65.90;;;;;;4857047;29;20466;-85
2023/08/13 07:58:50;;;;;;;2.33;2.23;;;28.20;65.90;;;;;;4856846;29;20463;-82
2023/08/13 08:01:18;;;;;;;2.27;2.17;;;28.20;65.90;;;;;;4855843;29;20474;-82
2023/08/13 08:03:46;;;;;;;2.20;2.10;;;28.20;65.90;;;;;;4856726;29;20834;-83
2023/08/13 08:06:14;;;;;;;1.87;1.77;;;28.20;65.90;;;;;;4858208;29;20476;-82
2023/08/13 08:08:43;;;;;;;2.27;2.17;;;28.20;65.90;;;;;;4854768;29;20472;-82
2023/08/13 08:11:12;;;;;;;2.47;2.33;;;28.20;65.90;;;;;;4855252;29;20470;-83
2023/08/13 08:13:42;;;;;;;2.40;2.30;;;28.20;65.90;;;;;;4858415;29;20464;-83
2023/08/13 08:16:10;;;;;;;2.07;1.97;;;28.20;65.90;;;;;;4858784;29;20471;-83
2023/08/13 08:18:39;;;;;;;2.30;2.20;;;28.20;65.90;;;;;;4856384;29;20895;-82
2023/08/13 08:21:10;;;;;;;2.10;2.00;;;28.20;65.90;;;;;;4857204;29;20879;-82
2023/08/13 08:23:38;;;;;;;2.40;2.20;;;28.20;65.90;;;;;;4851592;29;20541;-83
2023/08/13 08:26:06;;;;;;;2.70;2.50;;;28.20;65.90;;;;;;4857276;29;20456;-83
2023/08/13 08:28:36;;;;;;;2.50;2.40;;;28.20;65.90;;;;;;4858573;29;20487;-83
2023/08/13 08:31:06;;;;;;;2.30;2.20;;;28.20;65.90;;;;;;4856282;29;20939;-82
2023/08/13 08:33:35;;;;;;;2.87;2.67;;;28.20;65.90;;;;;;4857765;29;20987;-82
2023/08/13 08:36:03;;;;;;;2.70;2.60;;;28.20;65.90;;;;;;4855460;29;20485;-82
2023/08/13 08:38:31;;;;;;;2.60;2.43;;;28.20;65.90;;;;;;4858219;29;20510;-82
2023/08/13 08:41:00;;;;;;;2.30;2.10;;;28.20;65.90;;;;;;4858858;29;20455;-83
2023/08/13 08:43:30;;;;;;;2.40;2.30;;;28.20;65.90;;;;;;4854474;29;20597;-83
2023/08/13 08:46:01;;;;;;;2.17;2.07;;;28.20;65.90;;;;;;4859144;29;20472;-84
2023/08/13 08:48:32;;;;;;;2.00;1.90;;;28.20;65.90;;;;;;4866539;29;20471;-83
2023/08/13 08:51:00;;;;;;;2.20;2.10;;;28.20;65.90;;;;;;4866248;29;20466;-84
2023/08/13 08:53:29;;;;;;;2.03;1.93;;;28.20;65.90;;;;;;4853855;29;20561;-83
2023/08/13 08:55:57;;;;;;;2.17;2.07;;;28.10;65.90;;;;;;4861685;29;20515;-84
2023/08/13 08:58:26;;;;;;;2.00;1.90;;;28.10;66.00;;;;;;4857210;29;20519;-84
2023/08/13 09:01:00;;;;;;;2.07;1.97;;;28.10;66.00;;;;;;4858726;29;20466;-84
2023/08/13 09:03:30;;;;;;;2.40;2.20;;;28.10;66.10;;;;;;4861236;29;20476;-84
2023/08/13 09:05:58;;;;;;;2.27;2.17;;;28.10;66.10;;;;;;4867518;29;20461;-83
2023/08/13 09:08:46;;;;;;;1.97;1.87;;;28.10;66.10;;;;;;4850611;29;20466;-85
2023/08/13 09:11:14;;;;;;;3.53;2.17;;;28.10;66.10;;;;;;4856895;29;20503;-86
2023/08/13 09:13:48;;;;;;;2.90;2.70;;;28.10;66.50;;;;;;4861474;29;20933;-86
2023/08/13 09:16:17;;;;;;;3.20;3.00;;;28.10;66.70;;;;;;4856741;29;20475;-85
2023/08/13 09:18:46;;;;;;;3.80;3.40;;;28.10;66.80;;;;;;4858205;29;20577;-86
2023/08/13 09:21:28;;;;;;;3.00;2.80;;;28.10;67.10;;;;;;4848432;29;20509;-86
2023/08/13 09:23:57;;;;;;;3.30;3.10;;;28.10;67.10;;;;;;4854095;29;20475;-86
2023/08/13 09:26:25;;;;;;;3.70;3.40;;;28.10;67.20;;;;;;4850188;29;20497;-86
2023/08/13 09:28:54;;;;;;;3.40;3.20;;;28.00;67.50;;;;;;4848925;29;20459;-86
2023/08/13 09:31:25;;;;;;;3.60;3.30;;;28.00;67.50;;;;;;4855937;29;20509;-87
2023/08/13 09:33:55;;;;;;;4.00;3.47;;;28.00;67.70;;;;;;4856049;29;20894;-86
2023/08/13 09:36:23;;;;;;;3.70;3.40;;;28.00;67.70;;;;;;4851011;29;20473;-89
2023/08/13 09:38:52;;;;;;;3.73;3.43;;;28.00;67.80;;;;;;4852708;29;20515;-86
2023/08/13 09:41:21;;;;;;;3.37;3.07;;;28.00;67.80;;;;;;4856712;29;20959;-86
2023/08/13 09:43:51;;;;;;;3.20;3.00;;;28.00;67.90;;;;;;4854514;29;20463;-88
2023/08/13 09:46:21;;;;;;;3.40;3.20;;;28.00;67.90;;;;;;4856224;29;20477;-86
2023/08/13 09:48:54;;;;;;;4.13;3.80;;;28.00;68.10;;;;;;4856745;29;20465;-86
2023/08/13 09:51:30;;;;;;;3.50;3.30;;;28.00;68.10;;;;;;4853530;29;20456;-87
2023/08/13 09:54:13;;;;;;;3.30;3.10;;;28.00;68.20;;;;;;4847958;29;20514;-86
2023/08/13 09:56:45;;;;;;;3.47;3.17;;;28.00;68.20;;;;;;4855975;29;20464;-87
2023/08/13 09:59:13;;;;;;;3.90;3.70;;;28.00;68.20;;;;;;4860078;29;20478;-86
2023/08/13 10:01:42;;;;;;;3.37;3.17;;;28.00;68.30;;;;;;4856262;29;20558;-85
2023/08/13 10:04:11;;;;;;;4.07;3.77;;;28.00;68.20;;;;;;4855360;29;20502;-87
2023/08/13 10:06:41;;;;;;;4.13;3.83;;;28.00;68.30;;;;;;4856404;29;20514;-86
2023/08/13 10:09:10;;;;;;;4.03;3.67;;;28.00;68.30;;;;;;4859404;29;20507;-88
2023/08/13 10:11:39;;;;;;;3.70;3.40;;;28.00;68.30;;;;;;4870438;29;20493;-85
2023/08/13 10:14:07;;;;;;;4.50;3.80;;;28.00;68.40;;;;;;4859081;29;20973;-85
2023/08/13 10:16:35;;;;;;;3.90;3.50;;;28.10;68.30;;;;;;4859784;29;20949;-85
2023/08/13 10:19:07;;;;;;;4.20;3.77;;;28.10;68.40;;;;;;4856808;29;20467;-85
2023/08/13 10:21:35;;;;;;;4.23;3.83;;;28.00;68.40;;;;;;4858668;29;20482;-85
2023/08/13 10:24:10;;;;;;;3.60;3.40;;;28.00;68.40;;;;;;4859585;29;20460;-85
2023/08/13 10:26:41;;;;;;;3.87;3.57;;;28.00;68.40;;;;;;4859219;29;20497;-86
2023/08/13 10:29:24;;;;;;;4.07;3.77;;;28.00;68.50;;;;;;4855424;29;20473;-84
2023/08/13 10:31:59;;;;;;;3.43;3.13;;;28.10;68.50;;;;;;4849490;29;20481;-86
2023/08/13 10:34:42;;;;;;;3.83;3.63;;;28.10;68.50;;;;;;4860749;29;20512;-86
2023/08/13 10:37:16;;;;;;;3.70;3.40;;;28.10;68.50;;;;;;4857213;29;20459;-85
2023/08/13 10:39:46;;;;;;;4.40;4.10;;;28.10;68.50;;;;;;4856365;29;20466;-86
2023/08/13 10:42:47;;;;;;;4.10;3.67;;;28.10;68.50;;;;;;4859028;29;20459;-85
2023/08/13 10:45:17;;;;;;;4.77;4.27;;;28.10;68.50;;;;;;4861065;29;20506;-85
2023/08/13 10:47:46;;;;;;;4.40;4.03;;;28.10;68.50;;;;;;4860431;29;20491;-85
2023/08/13 10:50:21;;;;;;;3.67;3.47;;;28.10;68.50;;;;;;4855607;29;20494;-85
2023/08/13 10:52:52;;;;;;;4.03;3.73;;;28.10;68.50;;;;;;4854252;29;20470;-86
2023/08/13 10:55:25;;;;;;;3.50;3.30;;;28.10;68.50;;;;;;4851709;29;20485;-87
2023/08/13 10:57:53;;;;;;;4.43;4.03;;;28.10;68.50;;;;;;4862216;29;20517;-88
2023/08/13 11:00:23;;;;;;;4.10;3.90;;;28.10;68.50;;;;;;4866455;29;20486;-85
2023/08/13 11:02:53;;;;;;;4.00;3.67;;;28.10;68.50;;;;;;4859292;29;20497;-86
2023/08/13 11:05:22;;;;;;;4.20;4.00;;;28.10;68.50;;;;;;4859122;29;20481;-85
2023/08/13 11:07:51;;;;;;;3.93;3.63;;;28.10;68.50;;;;;;4859508;29;20548;-86
2023/08/13 11:10:21;;;;;;;4.00;3.80;;;28.10;68.50;;;;;;4858020;29;20465;-87
2023/08/13 11:12:50;;;;;;;3.83;3.60;;;28.10;68.50;;;;;;4858354;29;20835;-85
2023/08/13 11:15:19;;;;;;;4.23;3.93;;;28.10;68.60;;;;;;4856766;29;20967;-86
2023/08/13 11:17:50;;;;;;;4.10;3.80;;;28.10;68.70;;;;;;4861044;29;20513;-85
2023/08/13 11:20:19;;;;;;;3.70;3.40;;;28.10;68.60;;;;;;4860319;29;20456;-85
2023/08/13 11:22:48;;;;;;;4.07;3.80;;;28.10;68.70;;;;;;4858949;29;20459;-86
2023/08/13 11:25:16;;;;;;;3.70;3.50;;;28.10;68.70;;;;;;4860394;29;20498;-85
2023/08/13 11:27:45;;;;;;;3.90;3.70;;;28.10;68.70;;;;;;4855720;29;20506;-85
2023/08/13 11:30:15;;;;;;;4.03;3.73;;;28.20;68.60;;;;;;4859613;29;20957;-89
2023/08/13 11:32:45;;;;;;;3.93;3.63;;;28.20;68.60;;;;;;4859052;29;20484;-85
2023/08/13 11:35:13;;;;;;;4.77;4.37;;;28.20;68.60;;;;;;4856755;29;20488;-87
2023/08/13 11:37:41;;;;;;;4.10;3.90;;;28.30;68.60;;;;;;4856305;29;20491;-85
2023/08/13 11:40:11;;;;;;;4.00;3.60;;;28.30;68.50;;;;;;4870302;29;20998;-85
2023/08/13 11:42:52;;;;;;;3.80;3.50;;;28.30;68.50;;;;;;4851858;29;20503;-91
2023/08/13 11:45:23;;;;;;;4.43;4.03;;;28.30;68.50;;;;;;4859715;29;20967;-85
2023/08/13 11:47:52;;;;;;;4.63;4.33;;;28.40;68.50;;;;;;4851505;29;20964;-88
2023/08/13 11:50:21;;;;;;;3.77;3.57;;;28.50;68.30;;;;;;4858464;29;20570;-88
2023/08/13 11:53:04;;;;;;;3.80;3.60;;;28.50;68.10;;;;;;4857331;29;20993;-86
2023/08/13 11:55:33;;;;;;;3.93;3.63;;;28.60;68.00;;;;;;4859483;29;20523;-88
2023/08/13 11:58:02;;;;;;;4.10;3.80;;;28.60;68.00;;;;;;4858654;29;20952;-85
2023/08/13 12:00:33;;;;;;;4.30;3.93;;;28.70;67.70;;;;;;4860475;29;20809;-87
2023/08/13 12:03:01;;;;;;;4.93;4.50;;;28.90;67.20;;;;;;4857738;29;20458;-86
2023/08/13 12:05:31;;;;;;;4.67;4.30;;;29.00;67.10;;;;;;4858193;29;20544;-87
2023/08/13 12:08:00;;;;;;;4.20;3.90;;;29.20;66.60;;;;;;4857990;29;20974;-85
2023/08/13 12:10:33;;;;;;;4.60;4.30;;;29.20;66.50;;;;;;4859734;29;20948;-86
2023/08/13 12:13:01;;;;;;;4.60;4.20;;;29.30;66.40;;;;;;4856161;29;20470;-86
2023/08/13 12:15:32;;;;;;;3.93;3.73;;;29.30;66.40;;;;;;4859970;29;20463;-88
2023/08/13 12:18:01;;;;;;;4.03;3.53;;;29.30;66.40;;;;;;4858731;29;20471;-86
2023/08/13 12:20:30;;;;;;;4.70;4.30;;;29.50;66.10;;;;;;4859790;29;20477;-88
2023/08/13 12:22:58;;;;;;;4.33;4.00;;;29.50;66.10;;;;;;4858056;29;20960;-85
2023/08/13 12:25:26;;;;;;;4.37;4.10;;;29.40;66.20;;;;;;4857136;29;20467;-85
2023/08/13 12:27:55;;;;;;;4.80;4.50;;;29.50;66.10;;;;;;4858156;29;20497;-86
2023/08/13 12:30:23;;;;;;;4.53;4.23;;;29.40;66.10;;;;;;4850657;29;20476;-85
2023/08/13 12:32:53;;;;;;;3.57;3.37;;;29.20;66.50;;;;;;4859084;29;20961;-85
2023/08/13 12:35:22;;;;;;;4.60;4.30;;;29.00;67.00;;;;;;4858969;29;20474;-85
2023/08/13 12:37:50;;;;;;;4.27;4.00;;;28.90;67.00;;;;;;4858728;29;20462;-86
2023/08/13 12:40:19;;;;;;;4.50;4.20;;;28.80;67.50;;;;;;4852357;29;20457;-85
2023/08/13 12:42:47;;;;;;;4.43;4.13;;;28.70;67.70;;;;;;4863012;29;20473;-85
2023/08/13 12:45:15;;;;;;;3.90;3.60;;;28.60;67.90;;;;;;4859016;29;20467;-85
2023/08/13 12:47:43;;;;;;;4.33;3.90;;;28.60;68.00;;;;;;4858810;29;21014;-84
2023/08/13 12:50:13;;;;;;;4.50;4.13;;;28.50;68.00;;;;;;4857764;29;20480;-85
2023/08/13 12:52:41;;;;;;;4.40;4.00;;;28.40;68.10;;;;;;4866715;29;20880;-85
2023/08/13 12:55:09;;;;;;;4.30;3.90;;;28.40;68.20;;;;;;4856393;29;20538;-84
2023/08/13 12:57:37;;;;;;;3.70;3.50;;;28.30;68.30;;;;;;4858130;29;20523;-86
2023/08/13 13:00:07;;;;;;;3.80;3.50;;;28.30;68.30;;;;;;4858020;29;20468;-88